createdAt,value
2018-10-06T16:15:54.802Z,90.50
2018-10-06T16:18:24.290Z,90.50
2018-10-06T16:20:52.780Z,90.60
2018-10-06T16:23:21.333Z,90.70
2018-10-06T16:25:49.839Z,90.70
2018-10-06T16:28:18.360Z,90.70
2018-10-06T16:30:46.815Z,91.00
2018-10-06T16:33:15.249Z,91.00
2018-10-06T16:35:43.702Z,91.30
2018-10-06T16:38:12.134Z,91.20
2018-10-06T16:40:40.585Z,91.50
2018-10-06T16:43:09.042Z,91.70
2018-10-06T16:45:37.480Z,92.20
2018-10-06T16:48:05.960Z,92.40
2018-10-06T16:50:34.418Z,92.60
2018-10-06T16:53:02.835Z,93.00
2018-10-06T16:55:31.309Z,93.70
2018-10-06T16:57:59.715Z,94.00
2018-10-06T17:00:28.244Z,94.40
2018-10-06T17:02:56.638Z,95.10
2018-10-06T17:05:25.090Z,95.60
2018-10-06T17:07:53.542Z,95.90
2018-10-06T17:10:21.993Z,96.10
2018-10-06T17:12:50.484Z,96.00
2018-10-06T17:15:18.893Z,96.20
2018-10-06T17:17:47.322Z,96.30
2018-10-06T17:20:15.788Z,96.60
2018-10-06T17:22:44.189Z,96.80
2018-10-06T17:25:12.816Z,97.10
2018-10-06T17:27:45.186Z,97.50
2018-10-06T17:30:14.519Z,97.70
2018-10-06T17:32:42.965Z,98.30
2018-10-06T17:35:11.446Z,98.60
2018-10-06T17:37:39.900Z,99.10
2018-10-06T17:40:08.449Z,99.10
2018-10-06T17:42:36.948Z,99.60
2018-10-06T17:45:05.545Z,99.80
2018-10-06T17:47:34.004Z,99.90
2018-10-06T17:50:04.171Z,99.90
2018-10-06T17:52:32.492Z,99.90
2018-10-06T17:55:00.939Z,99.90
2018-10-06T17:57:29.416Z,99.90
2018-10-06T17:59:57.854Z,99.90
2018-10-06T18:02:26.398Z,99.90
2018-10-06T18:04:54.902Z,99.90
2018-10-06T18:07:23.354Z,99.90
2018-10-06T18:09:51.813Z,99.90
2018-10-06T18:12:20.258Z,99.90
2018-10-06T18:14:48.685Z,99.90
2018-10-06T18:17:23.933Z,99.90
2018-10-06T18:19:52.356Z,99.90
2018-10-06T18:22:21.097Z,99.90
2018-10-06T18:24:49.546Z,99.90
2018-10-06T18:27:18.899Z,99.90
2018-10-06T18:29:47.292Z,99.90
2018-10-06T18:32:15.734Z,99.90
2018-10-06T18:34:44.181Z,99.90
2018-10-06T18:37:12.740Z,99.90
2018-10-06T18:39:41.119Z,99.90
2018-10-06T18:42:09.571Z,99.90
2018-10-06T18:44:38.034Z,99.90
2018-10-06T18:47:06.468Z,99.90
2018-10-06T18:49:34.914Z,99.90
2018-10-06T18:52:03.381Z,99.90
2018-10-06T18:54:31.802Z,99.90
2018-10-06T18:57:00.246Z,99.90
2018-10-06T18:59:28.656Z,99.90
2018-10-06T19:01:57.126Z,99.90
2018-10-06T19:04:25.753Z,99.90
2018-10-06T19:06:54.227Z,99.90
2018-10-06T19:09:22.724Z,99.90
2018-10-06T19:15:22.761Z,99.90
2018-10-06T19:17:51.246Z,99.90
2018-10-06T19:20:19.697Z,99.90
2018-10-06T19:22:48.165Z,99.90
2018-10-06T19:25:16.739Z,99.90
2018-10-06T19:27:45.230Z,99.90
2018-10-06T19:30:13.756Z,99.90
2018-10-06T19:32:42.209Z,99.90
2018-10-06T19:35:10.722Z,99.90
2018-10-06T19:37:39.277Z,99.90
2018-10-06T19:40:07.785Z,99.90
2018-10-06T19:42:36.261Z,99.90
2018-10-06T19:45:05.543Z,99.90
2018-10-06T19:47:34.066Z,99.90
2018-10-06T19:50:02.559Z,99.90
2018-10-06T19:52:31.051Z,99.90
2018-10-06T19:54:59.536Z,99.90
2018-10-06T19:57:28.051Z,99.90
2018-10-06T19:59:56.638Z,99.90
2018-10-06T20:02:25.153Z,99.90
2018-10-06T20:04:53.677Z,99.90
2018-10-06T20:07:22.275Z,99.90
2018-10-06T20:09:50.767Z,99.90
2018-10-06T20:12:19.438Z,99.90
2018-10-06T20:14:47.900Z,99.90
2018-10-06T20:17:16.522Z,99.90
2018-10-06T20:19:45.056Z,99.90
2018-10-06T20:22:13.627Z,99.90
2018-10-06T20:24:42.114Z,99.90
2018-10-06T20:27:10.812Z,99.90
2018-10-06T20:29:40.141Z,99.90
2018-10-06T20:32:08.624Z,99.90
2018-10-06T20:34:37.294Z,99.90
2018-10-06T20:37:05.912Z,99.90
2018-10-06T20:39:35.079Z,99.90
2018-10-06T20:42:03.588Z,99.90
2018-10-06T20:44:32.093Z,99.90
2018-10-06T20:47:01.445Z,99.90
2018-10-06T20:49:29.931Z,99.90
2018-10-06T20:51:58.425Z,99.90
2018-10-06T20:54:27.178Z,99.90
2018-10-06T20:56:55.648Z,99.90
2018-10-06T20:59:24.149Z,99.90
2018-10-06T21:01:52.661Z,99.90
2018-10-06T21:04:21.187Z,99.90
2018-10-06T21:06:49.662Z,99.90
2018-10-06T21:09:18.428Z,99.90
2018-10-06T21:11:46.882Z,99.90
2018-10-06T21:14:15.386Z,99.90
2018-10-06T21:16:43.901Z,99.90
2018-10-06T21:19:12.370Z,99.90
2018-10-06T21:21:40.847Z,99.90
2018-10-06T21:24:09.479Z,99.90
2018-10-06T21:26:37.926Z,99.90
2018-10-06T21:29:06.562Z,99.90
2018-10-06T21:31:34.990Z,99.90
2018-10-06T21:34:03.538Z,99.90
2018-10-06T21:36:32.833Z,99.90
2018-10-06T21:39:01.268Z,99.90
2018-10-06T21:41:30.101Z,99.90
2018-10-06T21:43:58.759Z,99.90
2018-10-06T21:46:28.100Z,99.90
2018-10-06T21:48:56.630Z,99.90
2018-10-06T21:51:25.467Z,99.90
2018-10-06T21:53:54.539Z,99.90
2018-10-06T21:56:23.070Z,99.90
2018-10-06T21:58:51.566Z,99.90
2018-10-06T22:01:22.306Z,99.90
2018-10-06T22:03:50.935Z,99.90
2018-10-06T22:06:19.443Z,99.90
2018-10-06T22:08:51.991Z,99.90
2018-10-06T22:11:20.552Z,99.90
2018-10-06T22:13:49.069Z,99.90
2018-10-06T22:16:17.598Z,99.90
2018-10-06T22:18:46.872Z,99.90
2018-10-06T22:21:15.729Z,99.90
2018-10-06T22:23:44.212Z,99.90
2018-10-06T22:26:12.804Z,99.90
2018-10-06T22:28:41.260Z,99.90
2018-10-06T22:31:09.746Z,99.90
2018-10-06T22:33:38.206Z,99.90
2018-10-06T22:36:06.722Z,99.90
2018-10-06T22:38:35.258Z,99.90
2018-10-06T22:41:04.662Z,99.90
2018-10-06T22:43:33.160Z,99.90
2018-10-06T22:46:01.628Z,99.90
2018-10-06T22:48:30.122Z,99.90
2018-10-06T22:50:58.595Z,99.90
2018-10-06T22:53:27.084Z,99.90
2018-10-06T22:55:55.574Z,99.90
2018-10-06T22:58:24.173Z,99.90
2018-10-06T23:00:52.661Z,99.90
2018-10-06T23:03:21.159Z,99.90
2018-10-06T23:05:50.021Z,99.90
2018-10-06T23:08:18.555Z,99.90
2018-10-06T23:10:46.962Z,99.90
2018-10-06T23:13:15.437Z,99.90
2018-10-06T23:15:43.912Z,99.90
2018-10-06T23:18:12.405Z,99.90
2018-10-06T23:20:40.868Z,99.90
2018-10-06T23:23:09.333Z,99.90
2018-10-06T23:25:37.827Z,99.90
2018-10-06T23:28:06.311Z,99.90
2018-10-06T23:30:34.844Z,99.90
2018-10-06T23:33:03.326Z,99.90
2018-10-06T23:35:32.065Z,99.90
2018-10-06T23:38:00.487Z,99.90
2018-10-06T23:40:28.957Z,99.90
2018-10-06T23:42:57.461Z,99.90
2018-10-06T23:45:25.971Z,99.90
2018-10-06T23:47:54.492Z,99.90
2018-10-06T23:50:22.986Z,99.90
2018-10-06T23:52:51.416Z,99.90
2018-10-06T23:55:19.847Z,99.90
2018-10-06T23:57:48.328Z,99.90
